createdAt,value
2018-05-29T00:01:28.810Z,7.10
2018-05-29T00:03:56.237Z,5.90
2018-05-29T00:06:23.675Z,5.30
2018-05-29T00:08:51.110Z,4.67
2018-05-29T00:11:18.532Z,5.30
2018-05-29T00:13:45.981Z,5.50
2018-05-29T00:16:13.402Z,4.83
2018-05-29T00:18:41.608Z,5.80
2018-05-29T00:21:09.029Z,4.50
2018-05-29T00:23:36.467Z,6.30
2018-05-29T00:26:03.907Z,4.90
2018-05-29T00:28:31.338Z,6.00
2018-05-29T00:30:58.777Z,5.97
2018-05-29T00:33:26.981Z,5.13
2018-05-29T00:35:54.438Z,5.20
2018-05-29T00:38:21.858Z,6.03
2018-05-29T00:40:49.298Z,5.30
2018-05-29T00:43:16.726Z,5.50
2018-05-29T00:45:44.187Z,5.13
2018-05-29T00:48:11.629Z,4.97
2018-05-29T00:50:39.062Z,5.00
2018-05-29T00:53:06.490Z,6.40
2018-05-29T00:55:38.165Z,5.43
2018-05-29T00:58:05.580Z,5.30
2018-05-29T01:00:33.023Z,5.20
2018-05-29T01:03:00.454Z,5.47
2018-05-29T01:05:27.886Z,5.70
2018-05-29T01:07:55.319Z,5.80
2018-05-29T01:10:22.737Z,4.77
2018-05-29T01:12:50.174Z,5.10
2018-05-29T01:15:17.702Z,5.57
2018-05-29T01:17:45.138Z,5.40
2018-05-29T01:20:12.578Z,5.00
2018-05-29T01:22:40.002Z,5.30
2018-05-29T01:25:07.437Z,5.33
2018-05-29T01:27:35.641Z,4.80
2018-05-29T01:30:03.082Z,5.70
2018-05-29T01:32:30.515Z,5.63
2018-05-29T01:34:57.951Z,5.43
2018-05-29T01:37:25.426Z,6.10
2018-05-29T01:39:52.854Z,5.80
2018-05-29T01:42:20.295Z,5.83
2018-05-29T01:44:47.730Z,5.53
2018-05-29T01:47:15.153Z,6.43
2018-05-29T01:49:43.354Z,5.40
2018-05-29T01:52:10.807Z,5.70
2018-05-29T01:54:38.235Z,6.00
2018-05-29T01:57:05.670Z,6.10
2018-05-29T01:59:33.103Z,6.50
2018-05-29T02:02:00.530Z,6.40
2018-05-29T02:04:27.955Z,5.40
2018-05-29T02:06:55.377Z,5.60
2018-05-29T02:09:22.814Z,7.37
2018-05-29T02:11:50.255Z,7.03
2018-05-29T02:14:17.691Z,5.90
2018-05-29T02:16:45.117Z,7.53
2018-05-29T02:19:12.554Z,5.60
2018-05-29T02:21:40.014Z,6.53
2018-05-29T02:24:07.430Z,6.47
2018-05-29T02:26:35.641Z,6.30
2018-05-29T02:29:03.078Z,10.30
2018-05-29T02:31:30.506Z,6.17
2018-05-29T02:33:57.922Z,6.07
2018-05-29T02:36:25.353Z,6.60
2018-05-29T02:38:52.773Z,5.70
2018-05-29T02:41:20.216Z,6.20
2018-05-29T02:43:47.672Z,6.00
2018-05-29T02:46:15.099Z,5.37
2018-05-29T02:48:42.549Z,5.00
2018-05-29T02:51:09.970Z,6.20
2018-05-29T02:53:38.175Z,5.80
2018-05-29T02:56:05.600Z,4.87
2018-05-29T02:58:33.033Z,5.50
2018-05-29T03:01:00.458Z,6.10
2018-05-29T03:03:27.901Z,5.90
2018-05-29T03:05:55.410Z,6.20
2018-05-29T03:08:22.845Z,5.37
2018-05-29T03:10:50.273Z,6.40
2018-05-29T03:13:17.693Z,7.00
2018-05-29T03:15:45.886Z,6.50
2018-05-29T03:18:13.326Z,6.33
2018-05-29T03:20:40.747Z,6.57
2018-05-29T03:23:08.186Z,7.47
2018-05-29T03:25:35.611Z,6.63
2018-05-29T03:28:03.177Z,7.10
2018-05-29T03:30:30.607Z,6.80
2018-05-29T03:32:58.030Z,7.60
2018-05-29T03:35:25.465Z,8.37
2018-05-29T03:37:52.902Z,9.10
2018-05-29T03:40:20.343Z,8.20
2018-05-29T03:42:48.551Z,7.70
2018-05-29T03:45:15.969Z,7.67
2018-05-29T03:47:43.395Z,6.93
2018-05-29T03:50:10.883Z,7.67
2018-05-29T03:52:39.069Z,7.63
2018-05-29T03:55:06.541Z,7.23
2018-05-29T03:57:33.963Z,7.37
2018-05-29T04:00:01.406Z,7.47
2018-05-29T04:02:28.826Z,6.80
2018-05-29T04:04:56.279Z,6.97
2018-05-29T04:07:24.530Z,6.80
2018-05-29T04:09:51.981Z,6.47
2018-05-29T04:12:20.154Z,7.20
2018-05-29T04:14:47.601Z,6.30
2018-05-29T04:17:15.785Z,6.90
2018-05-29T04:19:43.227Z,7.73
2018-05-29T04:22:10.675Z,7.13
2018-05-29T04:24:38.106Z,6.47
2018-05-29T04:27:05.540Z,6.50
2018-05-29T04:29:32.954Z,6.70
2018-05-29T04:32:00.388Z,6.03
2018-05-29T04:34:27.872Z,6.20
2018-05-29T04:36:55.308Z,6.50
2018-05-29T04:39:22.741Z,6.50
2018-05-29T04:41:50.169Z,6.67
2018-05-29T04:44:17.606Z,7.20
2018-05-29T04:46:45.803Z,6.17
2018-05-29T04:49:13.254Z,7.20
2018-05-29T04:51:40.683Z,6.60
2018-05-29T04:54:08.094Z,6.10
2018-05-29T04:56:35.626Z,7.30
2018-05-29T04:59:03.038Z,6.73
2018-05-29T05:01:30.767Z,6.77
2018-05-29T05:03:58.174Z,6.20
2018-05-29T05:06:25.613Z,8.10
2018-05-29T05:08:53.079Z,6.43
2018-05-29T05:11:20.489Z,5.70
2018-05-29T05:13:47.935Z,5.13
2018-05-29T05:16:15.359Z,6.10
2018-05-29T05:18:42.790Z,10.43
2018-05-29T05:21:10.277Z,9.40
2018-05-29T05:23:37.750Z,6.53
2018-05-29T05:26:05.125Z,5.10
2018-05-29T05:28:32.545Z,4.60
2018-05-29T05:30:59.975Z,4.77
2018-05-29T05:33:27.719Z,5.77
2018-05-29T05:35:55.167Z,4.90
2018-05-29T05:38:22.585Z,5.47
2018-05-29T05:40:50.807Z,5.30
2018-05-29T05:43:18.252Z,5.23
2018-05-29T05:45:45.665Z,5.57
2018-05-29T05:48:13.109Z,5.97
2018-05-29T05:50:40.538Z,5.20
2018-05-29T05:53:07.979Z,5.77
2018-05-29T05:55:35.398Z,5.30
2018-05-29T05:58:03.609Z,4.93
2018-05-29T06:00:31.043Z,6.37
2018-05-29T06:02:58.495Z,4.50
2018-05-29T06:05:25.987Z,4.83
2018-05-29T06:07:53.439Z,4.60
2018-05-29T06:10:20.866Z,5.10
2018-05-29T06:12:48.305Z,7.83
2018-05-29T06:15:15.746Z,4.60
2018-05-29T06:17:43.191Z,5.20
2018-05-29T06:20:10.624Z,5.17
2018-05-29T06:22:38.044Z,4.40
2018-05-29T06:25:06.265Z,5.50
2018-05-29T06:27:33.688Z,5.00
2018-05-29T06:30:01.146Z,5.23
2018-05-29T06:32:28.570Z,5.47
2018-05-29T06:34:56.003Z,4.80
2018-05-29T06:37:23.467Z,5.80
2018-05-29T06:39:50.907Z,4.60
2018-05-29T06:42:18.353Z,7.40
2018-05-29T06:44:45.813Z,7.43
2018-05-29T06:47:13.251Z,5.83
2018-05-29T06:49:40.677Z,4.90
2018-05-29T06:52:08.131Z,6.43
2018-05-29T06:54:35.562Z,4.37
2018-05-29T06:57:02.993Z,5.00
2018-05-29T06:59:30.430Z,5.13
2018-05-29T07:01:57.874Z,4.00
2018-05-29T07:04:26.089Z,3.77
2018-05-29T07:06:53.598Z,4.90
2018-05-29T07:09:28.909Z,4.50
2018-05-29T07:11:56.371Z,5.13
2018-05-29T07:14:23.810Z,4.80
2018-05-29T07:16:51.253Z,4.97
2018-05-29T07:19:18.698Z,4.60
2018-05-29T07:21:46.122Z,4.03
2018-05-29T07:24:13.590Z,3.80
2018-05-29T07:26:41.029Z,3.60
2018-05-29T07:29:08.470Z,3.70
2018-05-29T07:31:35.934Z,4.17
2018-05-29T07:34:03.367Z,3.70
2018-05-29T07:36:30.790Z,5.53
2018-05-29T07:38:58.257Z,4.73
2018-05-29T07:41:25.668Z,4.23
2018-05-29T07:43:53.122Z,3.93
2018-05-29T07:46:20.570Z,3.70
2018-05-29T07:48:48.079Z,4.27
2018-05-29T07:51:15.511Z,3.80
2018-05-29T07:53:42.962Z,4.17
2018-05-29T07:56:10.551Z,3.67
2018-05-29T07:58:38.080Z,4.00
2018-05-29T08:01:05.522Z,3.80
2018-05-29T08:03:32.950Z,4.37
2018-05-29T08:06:00.414Z,4.70
2018-05-29T08:08:27.933Z,4.00
2018-05-29T08:10:55.386Z,5.03
2018-05-29T08:13:23.406Z,5.40
2018-05-29T08:15:50.865Z,3.83
2018-05-29T08:18:18.332Z,4.03
2018-05-29T08:20:45.774Z,4.00
2018-05-29T08:23:13.218Z,4.40
2018-05-29T08:25:40.655Z,3.57
2018-05-29T08:28:08.122Z,4.77
2018-05-29T08:30:35.584Z,4.30
2018-05-29T08:33:03.039Z,3.60
2018-05-29T08:35:30.674Z,4.30
2018-05-29T08:37:58.162Z,3.60
2018-05-29T08:40:25.617Z,3.60
2018-05-29T08:42:53.058Z,3.33
2018-05-29T08:45:20.497Z,4.17
2018-05-29T08:47:47.931Z,3.70
2018-05-29T08:50:15.387Z,4.30
2018-05-29T08:52:42.821Z,4.77
2018-05-29T08:55:10.274Z,5.87
2018-05-29T08:57:37.759Z,4.90
2018-05-29T09:00:05.207Z,4.60
2018-05-29T09:02:32.630Z,4.37
2018-05-29T09:05:00.081Z,4.40
2018-05-29T09:07:27.686Z,4.50
2018-05-29T09:09:55.114Z,4.83
2018-05-29T09:12:22.564Z,4.63
2018-05-29T09:14:50.013Z,5.13
2018-05-29T09:17:17.457Z,4.50
2018-05-29T09:19:44.906Z,4.17
2018-05-29T09:22:12.344Z,4.70
2018-05-29T09:24:39.782Z,4.00
2018-05-29T09:27:07.226Z,4.60
2018-05-29T09:29:34.723Z,5.03
2018-05-29T09:32:02.500Z,4.60
2018-05-29T09:34:29.873Z,5.00
2018-05-29T09:36:57.303Z,5.30
2018-05-29T09:39:25.535Z,4.50
2018-05-29T09:41:52.980Z,4.67
2018-05-29T09:44:20.455Z,4.40
2018-05-29T09:46:47.909Z,4.77
2018-05-29T09:49:15.352Z,4.30
2018-05-29T09:51:42.828Z,4.40
2018-05-29T09:54:10.268Z,4.47
2018-05-29T09:56:37.738Z,4.97
2018-05-29T09:59:05.206Z,4.30
2018-05-29T10:01:32.655Z,4.57
2018-05-29T10:04:00.124Z,4.10
2018-05-29T10:06:27.560Z,4.60
2018-05-29T10:08:55.018Z,5.63
2018-05-29T10:11:23.279Z,4.57
2018-05-29T10:13:51.456Z,5.30
2018-05-29T10:16:18.906Z,6.60
2018-05-29T10:18:46.326Z,4.53
2018-05-29T10:21:13.871Z,5.63
2018-05-29T10:23:41.435Z,5.47
2018-05-29T10:26:09.651Z,5.80
2018-05-29T10:28:37.083Z,5.53
2018-05-29T10:31:04.569Z,5.33
2018-05-29T10:33:32.005Z,5.10
2018-05-29T10:35:59.441Z,5.23
2018-05-29T10:38:26.901Z,4.60
2018-05-29T10:40:54.348Z,5.30
2018-05-29T10:43:21.796Z,5.50
2018-05-29T10:45:49.243Z,5.93
2018-05-29T10:48:16.671Z,6.20
2018-05-29T10:50:44.184Z,5.33
2018-05-29T10:53:11.639Z,5.70
2018-05-29T10:55:39.846Z,8.93
2018-05-29T10:58:07.310Z,5.47
2018-05-29T11:00:35.410Z,5.83
2018-05-29T11:03:02.862Z,5.83
2018-05-29T11:05:30.353Z,4.93
2018-05-29T11:07:58.594Z,5.60
2018-05-29T11:10:26.122Z,5.40
2018-05-29T11:12:54.107Z,3.87
2018-05-29T11:15:21.583Z,5.67
2018-05-29T11:17:49.036Z,5.77
2018-05-29T11:26:59.765Z,6.30
2018-05-29T11:29:27.263Z,6.67
2018-05-29T11:31:54.698Z,5.03
2018-05-29T11:34:22.161Z,4.13
2018-05-29T11:36:49.652Z,4.90
2018-05-29T11:39:17.104Z,5.27
2018-05-29T11:41:44.603Z,5.00
2018-05-29T11:44:12.111Z,5.03
2018-05-29T11:46:39.565Z,4.27
2018-05-29T11:49:07.002Z,4.40
2018-05-29T11:51:34.490Z,6.10
2018-05-29T11:54:01.946Z,4.10
2018-05-29T11:56:29.383Z,5.47
2018-05-29T11:58:59.465Z,7.30
2018-05-29T12:01:26.920Z,6.00
2018-05-29T12:03:54.376Z,4.93
2018-05-29T12:06:21.820Z,5.20
2018-05-29T12:08:49.497Z,4.40
2018-05-29T12:11:16.929Z,4.77
2018-05-29T12:13:44.542Z,4.50
2018-05-29T12:16:12.005Z,8.00
2018-05-29T12:18:39.419Z,5.60
2018-05-29T12:21:06.858Z,4.77
2018-05-29T12:23:34.332Z,5.00
2018-05-29T12:26:01.795Z,5.07
2018-05-29T12:28:29.262Z,4.50
2018-05-29T12:30:56.726Z,3.90
2018-05-29T12:33:24.952Z,4.20
2018-05-29T12:35:52.582Z,4.40
2018-05-29T12:38:20.947Z,3.93
2018-05-29T12:40:48.392Z,3.90
2018-05-29T12:43:15.830Z,5.27
2018-05-29T12:45:43.305Z,5.23
2018-05-29T12:48:10.743Z,4.87
2018-05-29T12:50:38.183Z,4.10
2018-05-29T12:53:05.637Z,4.63
2018-05-29T12:55:33.089Z,3.97
2018-05-29T12:58:00.606Z,6.80
2018-05-29T13:00:28.043Z,4.00
2018-05-29T13:02:55.515Z,3.47
2018-05-29T13:05:22.956Z,4.70
2018-05-29T13:07:50.407Z,4.43
2018-05-29T13:10:17.870Z,4.73
2018-05-29T13:12:45.294Z,4.20
2018-05-29T13:15:12.738Z,4.50
2018-05-29T13:17:40.185Z,3.97
2018-05-29T13:20:07.735Z,3.30
2018-05-29T13:22:35.216Z,2.57
2018-05-29T13:25:02.606Z,3.20
2018-05-29T13:27:30.053Z,4.47
2018-05-29T13:29:57.519Z,4.17
2018-05-29T13:32:24.976Z,3.53
2018-05-29T13:34:52.399Z,3.90
2018-05-29T13:37:19.849Z,3.83
2018-05-29T13:39:47.285Z,3.33
2018-05-29T13:42:14.865Z,4.70
2018-05-29T13:44:42.311Z,3.40
2018-05-29T13:47:09.766Z,5.10
2018-05-29T13:49:37.237Z,3.60
2018-05-29T13:52:04.737Z,4.70
2018-05-29T13:54:32.202Z,4.10
2018-05-29T13:56:59.919Z,4.30
2018-05-29T13:59:27.583Z,4.50
2018-05-29T14:01:54.998Z,4.30
2018-05-29T14:04:26.519Z,6.87
2018-05-29T14:06:54.188Z,4.97
2018-05-29T14:09:21.665Z,4.13
2018-05-29T14:11:49.870Z,3.40
2018-05-29T14:14:17.332Z,3.80
2018-05-29T14:16:44.760Z,4.00
2018-05-29T14:19:12.988Z,3.63
2018-05-29T14:21:40.455Z,3.63
2018-05-29T14:24:07.867Z,3.60
2018-05-29T14:26:35.528Z,4.33
2018-05-29T14:29:03.000Z,3.00
2018-05-29T14:31:31.258Z,3.00
2018-05-29T14:33:59.433Z,3.50
2018-05-29T14:36:26.894Z,2.93
2018-05-29T14:38:55.576Z,3.33
2018-05-29T14:41:24.051Z,2.77
2018-05-29T14:43:51.648Z,2.83
2018-05-29T14:46:19.121Z,2.63
2018-05-29T14:48:46.715Z,3.03
2018-05-29T14:51:14.173Z,3.67
2018-05-29T14:53:41.606Z,3.20
2018-05-29T14:56:09.116Z,4.03
2018-05-29T14:58:38.834Z,3.47
2018-05-29T15:01:07.203Z,3.70
2018-05-29T15:03:34.653Z,3.07
2018-05-29T15:06:02.122Z,3.40
2018-05-29T15:08:30.431Z,3.07
2018-05-29T15:10:57.886Z,3.13
2018-05-29T15:13:25.346Z,4.17
2018-05-29T15:15:52.781Z,3.83
2018-05-29T15:18:20.231Z,3.37
2018-05-29T15:20:47.668Z,3.73
2018-05-29T15:23:15.094Z,3.80
2018-05-29T15:25:42.683Z,5.30
2018-05-29T15:28:10.184Z,3.77
2018-05-29T15:30:37.671Z,3.87
2018-05-29T15:33:05.898Z,4.20
2018-05-29T15:35:33.322Z,4.30
2018-05-29T15:38:01.516Z,4.90
2018-05-29T15:40:29.007Z,4.30
2018-05-29T15:42:56.454Z,5.43
2018-05-29T15:45:23.910Z,4.67
2018-05-29T15:47:51.358Z,4.33
2018-05-29T15:50:18.777Z,4.57
2018-05-29T15:52:46.334Z,3.93
2018-05-29T15:55:13.778Z,5.77
2018-05-29T15:57:41.218Z,6.23
2018-05-29T16:00:08.647Z,4.90
2018-05-29T16:02:36.113Z,4.53
2018-05-29T16:05:03.570Z,4.70
2018-05-29T16:07:31.007Z,4.00
2018-05-29T16:09:58.463Z,3.80
2018-05-29T16:12:25.941Z,4.23
2018-05-29T16:14:53.454Z,4.13
2018-05-29T16:17:20.908Z,3.60
2018-05-29T16:19:48.340Z,3.10
2018-05-29T16:22:15.771Z,4.20
2018-05-29T16:24:43.210Z,4.13
2018-05-29T16:27:10.664Z,4.60
2018-05-29T16:29:38.091Z,4.00
2018-05-29T16:32:05.547Z,3.77
2018-05-29T16:34:32.983Z,3.43
2018-05-29T16:37:01.200Z,3.63
2018-05-29T16:39:28.635Z,4.10
2018-05-29T16:41:56.083Z,4.20
2018-05-29T16:44:23.523Z,3.87
2018-05-29T16:46:50.969Z,3.93
2018-05-29T16:49:18.394Z,4.43
2018-05-29T16:51:45.831Z,4.10
2018-05-29T16:54:13.260Z,5.17
2018-05-29T16:56:41.478Z,5.57
2018-05-29T16:59:08.913Z,4.80
2018-05-29T17:01:36.358Z,4.17
2018-05-29T17:04:03.792Z,4.10
2018-05-29T17:06:31.240Z,4.97
2018-05-29T17:08:58.668Z,4.70
2018-05-29T17:11:26.106Z,4.50
2018-05-29T17:13:53.548Z,4.13
2018-05-29T17:16:20.989Z,4.67
2018-05-29T17:18:49.404Z,4.60
2018-05-29T17:21:16.937Z,5.27
2018-05-29T17:23:44.377Z,5.60
2018-05-29T17:26:12.590Z,5.67
2018-05-29T17:28:40.002Z,4.60
2018-05-29T17:31:08.202Z,5.33
2018-05-29T17:33:35.637Z,5.20
2018-05-29T17:36:03.859Z,5.77
2018-05-29T17:38:31.292Z,4.77
2018-05-29T17:40:58.746Z,4.70
2018-05-29T17:43:26.171Z,4.23
2018-05-29T17:45:53.621Z,4.17
2018-05-29T17:48:21.038Z,4.50
2018-05-29T17:50:48.491Z,4.33
2018-05-29T17:53:15.930Z,5.30
2018-05-29T17:55:43.381Z,4.10
2018-05-29T17:58:11.583Z,5.00
2018-05-29T18:00:39.020Z,4.90
2018-05-29T18:03:06.448Z,4.73
2018-05-29T18:05:33.911Z,4.67
2018-05-29T18:08:01.387Z,5.60
2018-05-29T18:10:28.807Z,5.50
2018-05-29T18:12:56.242Z,5.03
2018-05-29T18:15:23.691Z,5.07
2018-05-29T18:17:51.115Z,5.27
2018-05-29T18:20:18.566Z,4.87
2018-05-29T18:22:46.762Z,5.27
2018-05-29T18:25:14.190Z,5.30
2018-05-29T18:27:41.625Z,5.00
2018-05-29T18:30:09.078Z,5.33
2018-05-29T18:32:36.511Z,4.93
2018-05-29T18:35:03.974Z,5.07
2018-05-29T18:37:31.408Z,6.53
2018-05-29T18:39:58.845Z,5.20
2018-05-29T18:42:26.300Z,5.20
2018-05-29T18:44:53.745Z,5.37
2018-05-29T18:47:21.945Z,5.00
2018-05-29T18:49:49.492Z,5.10
2018-05-29T18:52:16.834Z,6.40
2018-05-29T18:54:44.259Z,5.63
2018-05-29T18:57:11.698Z,6.20
2018-05-29T18:59:39.150Z,5.83
2018-05-29T19:02:06.595Z,5.93
2018-05-29T19:04:34.037Z,6.10
2018-05-29T19:07:01.502Z,6.27
2018-05-29T19:09:29.011Z,5.90
2018-05-29T19:11:56.461Z,7.60
2018-05-29T19:14:23.903Z,6.13
2018-05-29T19:16:51.353Z,7.30
2018-05-29T19:19:18.770Z,6.30
2018-05-29T19:21:46.236Z,6.80
2018-05-29T19:24:13.678Z,7.20
2018-05-29T19:26:41.111Z,7.07
2018-05-29T19:29:09.340Z,7.97
2018-05-29T19:31:36.759Z,7.10
2018-05-29T19:34:04.206Z,7.40
2018-05-29T19:36:31.631Z,7.73
2018-05-29T19:38:59.082Z,7.47
2018-05-29T19:41:26.518Z,7.63
2018-05-29T19:43:53.965Z,6.47
2018-05-29T19:46:21.418Z,7.77
2018-05-29T19:48:48.829Z,7.70
2018-05-29T19:51:16.296Z,7.43
2018-05-29T19:53:43.888Z,7.57
2018-05-29T19:56:11.343Z,7.70
2018-05-29T19:58:38.762Z,7.50
2018-05-29T20:01:06.215Z,7.70
2018-05-29T20:03:33.645Z,7.40
2018-05-29T20:06:01.100Z,7.40
2018-05-29T20:08:28.539Z,7.10
2018-05-29T20:10:55.983Z,7.67
2018-05-29T20:13:23.440Z,6.87
2018-05-29T20:15:50.965Z,6.60
2018-05-29T20:18:18.410Z,7.00
2018-05-29T20:20:45.847Z,6.50
2018-05-29T20:23:13.286Z,6.70
2018-05-29T20:25:40.739Z,7.10
2018-05-29T20:28:08.172Z,7.00
2018-05-29T20:30:36.371Z,7.40
2018-05-29T20:33:03.821Z,6.90
2018-05-29T20:35:31.250Z,7.50
2018-05-29T20:37:58.698Z,6.90
2018-05-29T20:40:26.139Z,7.57
2018-05-29T20:42:53.570Z,7.17
2018-05-29T20:45:21.011Z,6.60
2018-05-29T20:47:48.442Z,7.57
2018-05-29T20:50:15.884Z,6.97
2018-05-29T20:52:44.082Z,7.27
2018-05-29T20:55:11.537Z,6.97
2018-05-29T20:57:38.970Z,7.60
2018-05-29T21:00:06.417Z,7.70
2018-05-29T21:02:33.868Z,7.43
2018-05-29T21:05:01.351Z,7.13
2018-05-29T21:07:28.798Z,8.20
2018-05-29T21:09:56.226Z,8.80
2018-05-29T21:12:23.680Z,8.57
2018-05-29T21:14:51.125Z,9.40
2018-05-29T21:17:18.580Z,9.77
2018-05-29T21:19:46.034Z,9.30
2018-05-29T21:22:13.566Z,11.20
2018-05-29T21:24:40.987Z,10.60
2018-05-29T21:27:08.423Z,10.40
2018-05-29T21:29:35.879Z,8.80
2018-05-29T21:32:03.323Z,11.83
2018-05-29T21:34:30.782Z,10.70
2018-05-29T21:36:58.220Z,10.50
2018-05-29T21:39:25.682Z,10.27
2018-05-29T21:41:53.170Z,12.27
2018-05-29T21:44:20.599Z,12.27
2018-05-29T21:46:48.058Z,12.37
2018-05-29T21:49:15.543Z,12.60
2018-05-29T21:51:42.998Z,14.20
2018-05-29T21:54:10.451Z,17.03
2018-05-29T21:56:37.872Z,17.50
2018-05-29T21:59:05.317Z,18.30
2018-05-29T22:01:32.741Z,24.20
2018-05-29T22:04:03.988Z,34.30
2018-05-29T22:06:31.445Z,26.97
2018-05-29T22:08:58.895Z,19.47
2018-05-29T22:11:26.329Z,23.47
2018-05-29T22:13:53.774Z,23.57
2018-05-29T22:16:21.219Z,29.20
2018-05-29T22:18:48.646Z,27.33
2018-05-29T22:21:16.849Z,29.33
2018-05-29T22:23:44.281Z,30.60
2018-05-29T22:26:11.729Z,25.60
2018-05-29T22:28:39.220Z,25.83
2018-05-29T22:31:06.666Z,32.27
2018-05-29T22:33:34.098Z,28.10
2018-05-29T22:36:01.538Z,28.93
2018-05-29T22:38:28.982Z,27.90
2018-05-29T22:40:56.474Z,34.57
2018-05-29T22:43:23.918Z,35.47
2018-05-29T22:45:51.345Z,30.93
2018-05-29T22:48:18.778Z,28.50
2018-05-29T22:50:46.222Z,30.53
2018-05-29T22:53:13.672Z,33.60
2018-05-29T22:55:41.111Z,35.40
2018-05-29T22:58:09.321Z,35.00
2018-05-29T23:00:36.766Z,35.93
2018-05-29T23:03:04.190Z,35.33
2018-05-29T23:05:31.642Z,35.80
2018-05-29T23:07:59.066Z,36.00
2018-05-29T23:10:26.522Z,32.60
2018-05-29T23:12:53.968Z,33.97
2018-05-29T23:15:21.403Z,35.60
2018-05-29T23:17:48.834Z,32.13
2018-05-29T23:20:17.055Z,32.33
2018-05-29T23:22:44.494Z,32.67
2018-05-29T23:25:11.920Z,28.53
2018-05-29T23:27:39.368Z,18.20
2018-05-29T23:30:06.806Z,16.23
2018-05-29T23:32:34.278Z,8.00
2018-05-29T23:35:01.722Z,10.33
2018-05-29T23:37:29.153Z,9.43
2018-05-29T23:39:56.598Z,10.03
2018-05-29T23:42:24.027Z,7.40
2018-05-29T23:44:52.233Z,6.80
2018-05-29T23:47:19.656Z,6.67
2018-05-29T23:49:47.103Z,6.80
2018-05-29T23:52:14.530Z,5.30
2018-05-29T23:54:43.562Z,6.33
2018-05-29T23:57:10.987Z,6.40
2018-05-29T23:59:38.419Z,6.77
